Time;durP1;ratioP1;P1;durP2;ratioP2;P2;SDS_P1;SDS_P2;PMS_P1;PMS_P2;Temp;Humidity;BMP_temperature;BMP_pressure;BME280_temperature;BME280_humidity;BME280_pressure;Samples;Min_cycle;Max_cycle;Signal;HPM_P1;HPM_P2
2022/12/18 00:01:25;;;;;;;54.30;36.70;;;;;;;11.48;79.28;100084.31;5055031;28;20101;-79
2022/12/18 00:03:52;;;;;;;56.05;39.40;;;;;;;11.76;79.33;100135.78;5053618;28;20021;-79
2022/12/18 00:06:21;;;;;;;52.47;36.75;;;;;;;12.03;79.40;100192.81;5054765;28;20021;-79
2022/12/18 00:08:47;;;;;;;47.28;35.58;;;;;;;12.02;79.61;100200.91;5054984;28;20053;-79
2022/12/18 00:11:16;;;;;;;44.58;32.22;;;;;;;12.03;80.07;100195.44;5054777;28;20533;-79
2022/12/18 00:13:42;;;;;;;55.00;38.83;;;;;;;12.04;80.30;100193.63;5054774;28;20029;-80
2022/12/18 00:16:10;;;;;;;49.10;35.85;;;;;;;11.55;79.84;100126.78;5054738;28;20060;-80
2022/12/18 00:18:36;;;;;;;44.20;31.63;;;;;;;12.04;79.64;100189.16;5053408;28;20138;-79
2022/12/18 00:21:04;;;;;;;42.05;32.85;;;;;;;11.59;79.65;100126.25;5055179;28;20047;-79
2022/12/18 00:23:30;;;;;;;43.67;32.72;;;;;;;11.68;80.29;100159.63;5054682;28;20041;-79
2022/12/18 00:26:00;;;;;;;40.30;30.52;;;;;;;11.75;79.96;100167.72;5054667;28;20446;-79
2022/12/18 00:28:26;;;;;;;38.65;29.52;;;;;;;11.92;80.15;100190.53;5053784;28;20024;-79
2022/12/18 00:31:01;;;;;;;41.42;30.05;;;;;;;11.52;79.95;100132.41;5054515;28;20417;-79
2022/12/18 00:33:27;;;;;;;42.40;30.95;;;;;;;11.61;79.64;100139.31;5054543;28;20111;-79
2022/12/18 00:35:52;;;;;;;37.88;27.33;;;;;;;11.55;80.03;100124.97;5054574;28;20467;-79
2022/12/18 00:38:18;;;;;;;41.03;29.45;;;;;;;11.54;80.38;100135.72;5054289;28;20546;-79
2022/12/18 00:40:43;;;;;;;44.75;32.65;;;;;;;11.71;80.64;100166.41;5054359;28;20048;-78
2022/12/18 00:43:09;;;;;;;45.28;30.48;;;;;;;12.06;80.07;100228.69;5054180;28;20025;-79
2022/12/18 00:45:34;;;;;;;43.47;31.80;;;;;;;11.49;80.64;100145.97;5054354;28;20070;-78
2022/12/18 00:47:59;;;;;;;44.65;32.45;;;;;;;11.65;80.33;100161.78;5052943;28;20028;-78
2022/12/18 00:50:25;;;;;;;46.63;33.00;;;;;;;11.77;80.35;100177.16;5054270;28;20029;-78
2022/12/18 00:52:51;;;;;;;49.67;33.97;;;;;;;11.42;80.59;100128.13;5052780;28;20021;-78
2022/12/18 00:55:17;;;;;;;52.30;32.53;;;;;;;12.04;80.72;100235.97;5054861;28;20024;-78
2022/12/18 00:57:43;;;;;;;44.08;31.48;;;;;;;11.85;80.56;100208.06;5054708;28;20044;-79
2022/12/18 01:00:13;;;;;;;38.28;29.60;;;;;;;11.70;80.38;100185.91;5052401;28;20490;-79
2022/12/18 01:02:40;;;;;;;40.30;30.95;;;;;;;12.03;80.33;100239.63;5052607;28;20032;-79
2022/12/18 01:05:06;;;;;;;39.85;30.42;;;;;;;11.38;80.47;100134.75;5054158;28;20028;-79
2022/12/18 01:07:31;;;;;;;45.22;31.25;;;;;;;12.01;80.29;100246.91;5053910;28;20053;-78
2022/12/18 01:09:57;;;;;;;45.38;33.30;;;;;;;11.78;80.67;100204.44;5053777;28;20114;-79
2022/12/18 01:12:22;;;;;;;43.97;31.60;;;;;;;12.05;80.22;100262.28;5053612;28;20514;-79
2022/12/18 01:14:48;;;;;;;41.65;29.83;;;;;;;11.65;80.75;100198.81;5054004;28;20027;-79
2022/12/18 01:17:14;;;;;;;84.00;53.80;;;;;;;11.38;80.29;100168.28;5053937;28;20060;-78
2022/12/18 01:19:39;;;;;;;66.97;45.00;;;;;;;12.04;80.28;100257.97;5053862;28;20032;-79
2022/12/18 01:22:05;;;;;;;58.42;41.17;;;;;;;11.54;80.77;100178.84;5053533;28;20021;-78
2022/12/18 01:24:30;;;;;;;65.63;46.20;;;;;;;11.53;80.21;100161.31;5053546;28;20151;-79
2022/12/18 01:26:57;;;;;;;57.95;41.58;;;;;;;11.90;80.72;100231.38;5053403;28;20104;-79
2022/12/18 01:29:22;;;;;;;54.88;41.08;;;;;;;12.09;80.82;100254.81;5053388;28;20055;-79
2022/12/18 01:31:48;;;;;;;62.50;43.72;;;;;;;11.64;80.71;100192.69;5053284;28;20052;-79
2022/12/18 01:34:13;;;;;;;53.30;38.22;;;;;;;11.48;80.38;100181.34;5053353;28;20024;-78
2022/12/18 01:36:39;;;;;;;53.13;38.00;;;;;;;11.80;80.39;100226.25;5053393;28;20457;-79
2022/12/18 01:39:09;;;;;;;50.38;37.60;;;;;;;11.35;80.36;100135.09;5053174;28;20027;-78
2022/12/18 01:44:56;;;;;;;43.30;33.42;;;;;;;12.06;80.23;100234.81;5053344;28;20055;-79
2022/12/18 01:47:46;;;;;;;41.90;31.50;;;;;;;12.05;80.50;100235.81;5052850;28;20482;-78
2022/12/18 01:50:23;;;;;;;47.08;32.83;;;;;;;12.04;80.62;100218.28;5051778;28;20417;-78
2022/12/18 01:52:55;;;;;;;39.28;30.77;;;;;;;12.03;80.56;100227.22;5053008;28;20517;-79
2022/12/18 01:55:26;;;;;;;41.47;31.00;;;;;;;12.02;80.60;100220.28;5053131;28;20039;-78
2022/12/18 01:57:54;;;;;;;47.95;33.85;;;;;;;12.02;80.30;100224.75;5052948;28;20398;-78
2022/12/18 02:00:22;;;;;;;42.67;31.42;;;;;;;12.01;81.07;100223.91;5052837;28;20020;-79
2022/12/18 02:02:48;;;;;;;47.22;32.67;;;;;;;12.01;80.81;100209.84;5052876;28;21033;-79
2022/12/18 02:05:18;;;;;;;46.85;33.13;;;;;;;11.98;80.90;100211.03;5052660;28;20028;-79
2022/12/18 02:08:10;;;;;;;41.95;30.65;;;;;;;12.00;80.38;100213.50;5051282;28;20482;-79
2022/12/18 02:10:43;;;;;;;;;;;;;;;11.88;81.54;100228.88;5052650;28;20049;-79
2022/12/18 02:13:58;;;;;;;38.35;26.58;;;;;;;11.88;81.28;100231.53;5052401;28;19920;-79
2022/12/18 02:16:27;;;;;;;39.60;28.88;;;;;;;11.93;81.70;100226.59;5042550;28;20208;-78
2022/12/18 02:18:59;;;;;;;36.53;26.90;;;;;;;11.98;81.11;100234.84;5052483;28;20029;-78
2022/12/18 02:21:42;;;;;;;;;;;;;;;11.91;81.74;100251.56;5053003;28;20391;-79
2022/12/18 02:24:29;;;;;;;31.83;25.40;;;;;;;11.99;81.51;100260.31;5052537;28;19959;-79
2022/12/18 02:27:02;;;;;;;34.85;25.27;;;;;;;12.03;81.73;100255.50;5051218;28;20029;-79
2022/12/18 02:29:51;;;;;;;36.83;28.08;;;;;;;11.78;81.45;100220.31;5052129;28;20021;-79
2022/12/18 02:32:28;;;;;;;36.58;27.50;;;;;;;12.12;81.19;100266.88;5052297;28;20028;-79
2022/12/18 02:34:56;;;;;;;35.13;27.88;;;;;;;12.16;81.29;100254.97;5052100;28;20025;-78
2022/12/18 02:37:23;;;;;;;34.85;26.05;;;;;;;12.20;81.10;100261.56;5051955;28;20100;-79
2022/12/18 02:39:49;;;;;;;41.92;31.00;;;;;;;11.87;81.47;100203.41;5051978;28;20467;-79
2022/12/18 02:42:17;;;;;;;39.58;31.38;;;;;;;12.13;81.06;100248.19;5052066;28;20017;-78
2022/12/18 02:44:47;;;;;;;39.50;29.10;;;;;;;12.18;81.34;100259.09;5052152;28;20055;-78
2022/12/18 02:47:16;;;;;;;35.53;28.02;;;;;;;12.08;81.31;100248.69;5052149;28;20028;-79
2022/12/18 02:49:47;;;;;;;43.72;32.38;;;;;;;12.24;81.15;100273.47;5051942;28;20403;-78
2022/12/18 02:52:28;;;;;;;38.80;29.58;;;;;;;12.23;80.87;100275.28;5051843;28;20025;-78
2022/12/18 02:55:21;;;;;;;37.03;28.40;;;;;;;12.23;81.13;100275.28;5051831;28;20413;-79
2022/12/18 02:58:37;;;;;;;33.95;25.23;;;;;;;12.20;81.69;100282.75;5050402;28;20027;-79
2022/12/18 03:01:16;;;;;;;37.47;27.48;;;;;;;12.23;81.29;100283.22;5042430;28;20423;-79
2022/12/18 03:03:49;;;;;;;37.00;29.10;;;;;;;12.09;81.43;100260.13;5050438;28;20017;-79
2022/12/18 03:06:23;;;;;;;44.40;34.17;;;;;;;12.27;81.32;100281.91;5051753;28;20021;-78
2022/12/18 03:08:53;;;;;;;41.28;30.85;;;;;;;12.28;81.02;100282.72;5051806;28;20029;-79
2022/12/18 03:12:22;;;;;;;40.67;33.45;;;;;;;11.88;81.11;100215.66;5051466;28;20060;-79
2022/12/18 03:14:07;;;;;;;52.08;35.30;;;;;;;12.28;81.23;100293.31;5051568;28;20592;-79
2022/12/18 03:16:35;;;;;;;47.70;35.75;;;;;;;12.18;81.35;100267.03;5051627;28;20162;-78
2022/12/18 03:19:15;;;;;;;41.33;31.58;;;;;;;11.99;81.22;100246.25;5051746;28;20025;-78
2022/12/18 03:21:45;;;;;;;46.20;33.72;;;;;;;11.64;81.37;100190.06;5051496;28;20029;-78
2022/12/18 03:24:11;;;;;;;47.53;34.17;;;;;;;12.03;81.24;100256.31;5050719;28;20024;-79
2022/12/18 03:26:40;;;;;;;42.53;31.88;;;;;;;11.72;81.51;100219.13;5051301;28;20032;-78
2022/12/18 03:29:16;;;;;;;43.42;33.75;;;;;;;12.02;81.52;100275.84;5051368;28;20092;-79
2022/12/18 03:31:48;;;;;;;47.03;34.10;;;;;;;12.01;81.32;100263.59;5051344;28;20218;-78
2022/12/18 03:34:24;;;;;;;55.70;38.42;;;;;;;12.13;81.56;100287.06;5051197;28;20109;-78
2022/12/18 03:36:49;;;;;;;47.22;33.53;;;;;;;12.17;81.84;100323.63;5051337;28;20033;-79
2022/12/18 03:39:15;;;;;;;52.05;35.50;;;;;;;11.33;81.83;100183.84;5051230;28;20036;-78
2022/12/18 03:42:06;;;;;;;51.13;36.45;;;;;;;12.09;81.90;100316.53;5051109;28;20024;-78
2022/12/18 03:45:02;;;;;;;43.88;31.58;;;;;;;12.09;81.58;100316.53;5051056;28;20115;-78
2022/12/18 03:47:35;;;;;;;43.25;30.92;;;;;;;12.10;82.01;100317.34;5050944;28;20029;-79
2022/12/18 03:50:14;;;;;;;41.65;29.25;;;;;;;11.73;81.88;100268.41;5049736;28;20516;-78
2022/12/18 03:53:04;;;;;;;44.17;30.40;;;;;;;12.08;81.77;100336.06;5051060;28;20103;-79
2022/12/18 03:55:34;;;;;;;39.85;27.35;;;;;;;11.72;81.92;100263.28;5051063;28;20489;-79
2022/12/18 03:58:03;;;;;;;34.40;25.98;;;;;;;11.95;81.76;100313.75;5049800;28;20067;-79
2022/12/18 04:00:30;;;;;;;40.60;27.90;;;;;;;12.04;81.87;100328.63;5051380;28;20112;-79
2022/12/18 04:02:59;;;;;;;45.67;31.33;;;;;;;11.60;81.64;100260.16;5049878;28;20033;-79
2022/12/18 04:05:28;;;;;;;37.70;26.90;;;;;;;11.78;81.67;100291.75;5050907;28;20025;-78
2022/12/18 04:07:54;;;;;;;38.28;27.08;;;;;;;12.05;82.13;100340.84;5051086;28;20108;-78
2022/12/18 04:10:20;;;;;;;39.38;28.08;;;;;;;11.66;81.72;100274.53;5051013;28;20024;-79
2022/12/18 04:12:45;;;;;;;35.85;27.02;;;;;;;11.57;81.62;100288.75;5050780;28;20045;-78
2022/12/18 04:15:12;;;;;;;42.78;29.05;;;;;;;12.09;81.73;100344.81;5050719;28;20082;-79
2022/12/18 04:17:41;;;;;;;43.85;30.52;;;;;;;12.11;82.16;100358.72;5050880;28;20517;-79
2022/12/18 04:20:07;;;;;;;32.65;25.08;;;;;;;11.43;81.92;100251.41;5050884;28;20025;-79
2022/12/18 04:22:32;;;;;;;53.17;34.40;;;;;;;11.59;82.09;100271.72;5051169;28;20032;-78
2022/12/18 04:24:58;;;;;;;47.75;33.42;;;;;;;12.14;82.24;100354.91;5050975;28;20104;-79
2022/12/18 04:27:23;;;;;;;42.95;31.65;;;;;;;11.52;82.04;100256.69;5050960;28;20028;-78
2022/12/18 04:29:49;;;;;;;40.85;30.98;;;;;;;11.79;82.01;100301.34;5050918;28;20510;-79
2022/12/18 04:32:14;;;;;;;43.85;32.75;;;;;;;12.17;82.28;100365.16;5050763;28;20112;-78
2022/12/18 04:34:39;;;;;;;36.22;29.27;;;;;;;11.81;81.91;100320.50;5051756;28;20017;-79
2022/12/18 04:37:05;;;;;;;34.85;27.83;;;;;;;12.19;82.22;100365.81;5054324;28;20104;-78
2022/12/18 04:39:30;;;;;;;41.08;30.80;;;;;;;12.20;82.02;100365.66;5054467;28;20485;-79
2022/12/18 04:41:55;;;;;;;39.75;30.23;;;;;;;12.23;82.25;100364.47;5054347;28;20029;-78
2022/12/18 04:44:21;;;;;;;43.63;33.30;;;;;;;12.16;82.14;100356.38;5054388;28;20421;-78
2022/12/18 04:46:46;;;;;;;45.80;34.17;;;;;;;11.94;82.25;100323.50;5054294;28;20024;-78
2022/12/18 04:49:12;;;;;;;37.47;29.08;;;;;;;12.07;82.12;100342.34;5054363;28;20473;-79
2022/12/18 04:51:37;;;;;;;40.03;31.77;;;;;;;11.99;81.64;100326.47;5054162;28;20025;-79
2022/12/18 04:54:03;;;;;;;44.20;33.97;;;;;;;11.47;81.42;100236.03;5054110;28;20464;-78
2022/12/18 04:56:30;;;;;;;44.28;32.72;;;;;;;12.35;81.87;100376.38;5053888;28;20027;-79
2022/12/18 04:58:56;;;;;;;39.92;30.05;;;;;;;12.03;81.85;100333.09;5053838;28;20025;-78
2022/12/18 05:01:21;;;;;;;47.35;35.97;;;;;;;11.86;81.59;100302.31;5053985;28;20028;-78
2022/12/18 05:03:47;;;;;;;46.88;33.53;;;;;;;12.31;82.02;100381.19;5053870;28;20510;-79
2022/12/18 05:06:13;;;;;;;44.78;33.55;;;;;;;11.96;82.14;100332.09;5053931;28;20053;-78
2022/12/18 05:08:38;;;;;;;46.63;35.03;;;;;;;12.33;82.27;100405.66;5053886;28;20031;-79
2022/12/18 05:11:04;;;;;;;45.13;33.90;;;;;;;12.32;82.38;100389.94;5053438;28;20060;-78
2022/12/18 05:13:30;;;;;;;41.10;31.92;;;;;;;12.32;82.00;100395.25;5053654;28;20547;-79
2022/12/18 05:15:56;;;;;;;45.85;35.05;;;;;;;12.34;82.06;100402.03;5053499;28;20110;-78
2022/12/18 05:18:23;;;;;;;43.38;32.45;;;;;;;12.35;82.14;100395.72;5053562;28;20056;-78
2022/12/18 05:20:49;;;;;;;47.97;36.33;;;;;;;12.05;81.94;100346.97;5053812;28;20028;-78
2022/12/18 05:23:15;;;;;;;48.22;39.70;;;;;;;12.37;82.24;100406.16;5053671;28;20512;-78
2022/12/18 05:25:40;;;;;;;45.58;36.03;;;;;;;12.01;81.84;100339.53;5053517;28;20047;-78
2022/12/18 05:28:05;;;;;;;43.08;34.28;;;;;;;12.20;82.38;100380.69;5053488;28;20051;-78
2022/12/18 05:30:31;;;;;;;48.47;36.30;;;;;;;11.78;81.80;100303.16;5052129;28;20485;-78
2022/12/18 05:32:56;;;;;;;52.10;38.00;;;;;;;12.15;82.05;100383.84;5053772;28;20025;-78
2022/12/18 05:35:22;;;;;;;51.60;38.35;;;;;;;12.09;82.20;100388.00;5053327;28;20081;-78
2022/12/18 05:37:47;;;;;;;47.65;36.45;;;;;;;11.82;82.22;100334.56;5053341;28;20116;-78
2022/12/18 05:40:12;;;;;;;46.88;35.75;;;;;;;11.89;82.27;100354.94;5053324;28;20021;-78
2022/12/18 05:42:38;;;;;;;49.85;37.30;;;;;;;11.98;82.21;100363.69;5053351;28;20494;-79
2022/12/18 05:45:04;;;;;;;55.65;40.17;;;;;;;11.91;82.34;100354.78;5052024;28;20401;-78
2022/12/18 05:47:30;;;;;;;53.88;41.80;;;;;;;11.95;82.40;100372.78;5052441;28;20028;-79
2022/12/18 05:49:56;;;;;;;52.22;39.92;;;;;;;12.03;82.09;100395.78;5053077;28;20379;-78
2022/12/18 05:52:21;;;;;;;54.95;42.22;;;;;;;12.34;82.24;100454.16;5051694;28;20024;-79
2022/12/18 05:54:46;;;;;;;59.47;45.15;;;;;;;12.16;82.26;100414.63;5053079;28;20024;-79
2022/12/18 05:57:12;;;;;;;65.85;48.20;;;;;;;11.86;82.17;100368.47;5052998;28;20489;-78
2022/12/18 05:59:37;;;;;;;65.47;50.83;;;;;;;12.28;82.43;100438.94;5053245;28;20032;-79
2022/12/18 06:02:03;;;;;;;62.47;46.53;;;;;;;12.20;82.33;100420.41;5051468;28;20021;-78
2022/12/18 06:04:28;;;;;;;61.90;46.95;;;;;;;12.19;82.42;100416.94;5053128;28;20032;-79
2022/12/18 06:06:54;;;;;;;52.15;38.90;;;;;;;12.06;82.21;100393.63;5052595;28;20100;-78
2022/12/18 06:09:19;;;;;;;48.70;36.58;;;;;;;12.48;82.11;100466.72;5052847;28;20025;-79
2022/12/18 06:11:45;;;;;;;42.75;29.55;;;;;;;12.49;82.18;100467.56;5052800;28;20049;-78
2022/12/18 06:14:10;;;;;;;36.97;28.30;;;;;;;12.34;81.65;100451.50;5052677;28;20025;-79
2022/12/18 06:16:36;;;;;;;37.00;27.23;;;;;;;12.51;81.65;100479.63;5052593;28;20017;-78
2022/12/18 06:19:03;;;;;;;37.92;29.13;;;;;;;12.54;81.30;100478.47;5052415;28;20485;-78
2022/12/18 06:21:30;;;;;;;30.70;26.10;;;;;;;12.55;81.28;100488.91;5052401;28;20025;-78
2022/12/18 06:23:56;;;;;;;31.85;26.05;;;;;;;12.38;81.14;100463.44;5052142;28;20039;-78
2022/12/18 06:26:21;;;;;;;35.65;27.38;;;;;;;12.20;81.14;100436.31;5052420;28;20032;-79
2022/12/18 06:28:47;;;;;;;34.47;25.80;;;;;;;12.57;80.92;100496.69;5052386;28;20583;-79
2022/12/18 06:31:12;;;;;;;28.20;23.85;;;;;;;12.34;80.69;100468.22;5052352;28;20031;-79
2022/12/18 06:33:38;;;;;;;29.80;23.75;;;;;;;12.44;80.68;100493.72;5052351;28;20025;-79
2022/12/18 06:36:08;;;;;;;30.52;24.20;;;;;;;12.53;80.34;100514.72;5052058;28;20414;-78
2022/12/18 06:38:35;;;;;;;27.13;21.13;;;;;;;12.54;80.32;100521.69;5050613;28;20033;-78
2022/12/18 06:41:00;;;;;;;29.60;22.92;;;;;;;12.53;79.97;100527.97;5051944;28;20520;-79
2022/12/18 06:43:26;;;;;;;28.52;21.38;;;;;;;12.53;79.83;100532.44;5052270;28;20092;-79
2022/12/18 06:45:58;;;;;;;25.95;20.58;;;;;;;11.95;79.34;100451.34;5052021;28;20021;-78
2022/12/18 06:48:24;;;;;;;28.33;21.73;;;;;;;12.51;79.10;100539.72;5050778;28;20021;-78
2022/12/18 06:50:49;;;;;;;22.70;18.52;;;;;;;12.30;79.04;100516.38;5050796;28;20082;-79
2022/12/18 06:53:14;;;;;;;23.38;18.52;;;;;;;12.35;78.75;100538.72;5051933;28;20029;-78
2022/12/18 06:55:40;;;;;;;22.42;18.42;;;;;;;12.00;78.52;100475.50;5050573;28;20108;-79
2022/12/18 06:58:05;;;;;;;17.90;15.32;;;;;;;12.42;77.93;100560.09;5050633;28;20029;-78
2022/12/18 07:00:31;;;;;;;18.00;14.35;;;;;;;12.13;77.73;100522.66;5050531;28;20409;-79
2022/12/18 07:02:56;;;;;;;16.55;13.95;;;;;;;11.85;77.36;100488.53;5050570;28;20028;-79
2022/12/18 07:05:22;;;;;;;17.20;13.65;;;;;;;12.38;76.95;100574.66;5051940;28;20024;-78
2022/12/18 07:07:48;;;;;;;15.98;13.80;;;;;;;12.00;76.15;100521.34;5051860;28;20528;-79
2022/12/18 07:10:13;;;;;;;13.73;11.30;;;;;;;12.28;76.20;100580.09;5051782;28;20048;-78
2022/12/18 07:12:38;;;;;;;10.43;9.18;;;;;;;12.29;75.30;100596.81;5051553;28;20132;-79
2022/12/18 07:15:04;;;;;;;9.85;8.88;;;;;;;12.09;75.12;100569.81;5051736;28;20100;-79
2022/12/18 07:17:30;;;;;;;12.00;9.65;;;;;;;11.75;74.47;100524.88;5051444;28;20059;-79
2022/12/18 07:19:55;;;;;;;10.85;8.85;;;;;;;11.57;74.02;100517.03;5051483;28;20096;-78
2022/12/18 07:22:21;;;;;;;9.70;8.75;;;;;;;11.80;74.37;100548.22;5051528;28;20096;-79
2022/12/18 07:24:50;;;;;;;9.98;8.98;;;;;;;11.89;74.09;100556.06;5051398;28;20032;-79
2022/12/18 07:27:15;;;;;;;10.57;9.50;;;;;;;11.69;73.97;100521.03;5051104;28;20013;-78
2022/12/18 07:29:40;;;;;;;11.18;9.40;;;;;;;11.73;73.79;100529.50;5051301;28;20457;-79
2022/12/18 07:32:06;;;;;;;9.90;8.90;;;;;;;12.25;73.67;100614.03;5051496;28;20025;-78
2022/12/18 07:34:32;;;;;;;12.40;9.18;;;;;;;12.23;73.62;100626.59;5051262;28;20016;-78
2022/12/18 07:36:57;;;;;;;11.65;9.80;;;;;;;12.16;73.72;100610.53;5051432;28;20074;-79
2022/12/18 07:39:23;;;;;;;14.35;10.95;;;;;;;12.16;73.59;100613.19;5051193;28;20032;-78
2022/12/18 07:42:30;;;;;;;11.50;9.88;;;;;;;11.90;73.74;100586.00;5051135;28;20028;-79
2022/12/18 07:44:34;;;;;;;15.52;10.95;;;;;;;11.62;73.56;100562.34;5051084;28;20115;-78
2022/12/18 07:46:59;;;;;;;13.02;9.88;;;;;;;11.44;73.54;100529.88;5051251;28;20108;-79
2022/12/18 07:49:24;;;;;;;13.77;11.35;;;;;;;11.44;74.03;100529.88;5051116;28;20013;-78
2022/12/18 07:51:50;;;;;;;16.25;13.13;;;;;;;11.24;73.81;100499.41;5050914;28;20165;-79
2022/12/18 07:54:15;;;;;;;15.93;13.63;;;;;;;11.54;73.81;100558.84;5051232;28;20025;-78
2022/12/18 07:56:41;;;;;;;14.93;12.85;;;;;;;11.47;73.03;100548.06;5051238;28;20017;-78
2022/12/18 07:59:06;;;;;;;15.23;12.50;;;;;;;12.07;73.56;100657.34;5051138;28;20025;-79
2022/12/18 08:01:33;;;;;;;16.60;13.57;;;;;;;11.60;73.45;100593.44;5051138;28;20044;-78
2022/12/18 08:03:58;;;;;;;17.73;15.80;;;;;;;11.91;73.46;100644.03;5049726;28;20024;-79
2022/12/18 08:06:24;;;;;;;18.38;14.90;;;;;;;10.94;73.35;100487.50;5050756;28;20028;-78
2022/12/18 08:08:52;;;;;;;17.50;14.85;;;;;;;11.54;73.52;100604.63;5050812;28;20032;-79
2022/12/18 08:11:17;;;;;;;17.83;14.25;;;;;;;11.65;73.47;100612.28;5054816;28;20055;-79
2022/12/18 08:13:43;;;;;;;17.55;14.48;;;;;;;11.80;73.26;100639.00;5054659;28;20505;-78
2022/12/18 08:16:08;;;;;;;18.45;16.45;;;;;;;11.54;73.07;100612.56;5054914;28;20025;-79
2022/12/18 08:18:35;;;;;;;19.92;15.77;;;;;;;12.01;73.00;100678.31;5055181;28;20071;-78
2022/12/18 08:21:18;;;;;;;17.55;15.30;;;;;;;11.75;73.18;100657.97;5054982;28;20056;-78
2022/12/18 08:23:44;;;;;;;16.85;14.35;;;;;;;11.82;73.31;100665.31;5054995;28;20025;-78
2022/12/18 08:26:11;;;;;;;18.48;14.75;;;;;;;11.93;72.61;100687.06;5054955;28;20043;-78
2022/12/18 08:28:36;;;;;;;18.25;13.70;;;;;;;11.91;72.76;100696.97;5055066;28;20452;-78
2022/12/18 08:31:02;;;;;;;14.35;12.75;;;;;;;11.93;72.57;100702.94;5054923;28;20055;-78
2022/12/18 08:33:27;;;;;;;15.65;12.63;;;;;;;11.16;72.56;100582.13;5054741;28;20055;-79
2022/12/18 08:35:53;;;;;;;16.30;13.02;;;;;;;11.60;72.88;100648.16;5053023;28;20086;-78
2022/12/18 08:38:18;;;;;;;17.90;13.07;;;;;;;11.41;72.28;100620.13;5052961;28;20017;-79
2022/12/18 08:40:45;;;;;;;14.82;12.20;;;;;;;11.40;71.86;100629.84;5054576;28;20043;-78
2022/12/18 08:45:55;;;;;;;16.50;12.85;;;;;;;11.48;72.41;100649.41;5054347;28;20029;-78
2022/12/18 08:48:21;;;;;;;17.95;14.02;;;;;;;11.46;72.54;100645.09;5054727;28;20033;-78
2022/12/18 08:50:57;;;;;;;14.10;10.90;;;;;;;11.72;71.67;100691.84;5053476;28;20504;-80
2022/12/18 08:53:24;;;;;;;14.35;10.98;;;;;;;11.23;72.09;100624.63;5054548;28;20029;-79
2022/12/18 08:55:49;;;;;;;13.80;11.95;;;;;;;11.44;72.49;100654.19;5053168;28;20102;-79
2022/12/18 08:58:14;;;;;;;15.73;13.13;;;;;;;11.38;72.27;100650.34;5054416;28;20037;-79
2022/12/18 09:00:40;;;;;;;16.15;13.52;;;;;;;11.52;71.96;100658.69;5054620;28;20028;-79
2022/12/18 09:03:17;;;;;;;16.98;13.48;;;;;;;11.70;72.24;100683.25;5054524;28;20020;-78
2022/12/18 09:05:43;;;;;;;17.20;12.95;;;;;;;11.46;72.56;100662.78;5054625;28;20021;-78
2022/12/18 09:08:08;;;;;;;14.70;12.77;;;;;;;11.40;71.88;100647.53;5055855;28;20028;-79
2022/12/18 09:10:40;;;;;;;14.35;12.23;;;;;;;11.43;72.20;100648.06;5055784;28;20562;-78
2022/12/18 09:13:06;;;;;;;17.42;12.82;;;;;;;11.66;72.20;100697.78;5053575;28;20390;-79
2022/12/18 09:15:31;;;;;;;14.20;11.65;;;;;;;11.68;72.51;100690.50;5053909;28;20029;-79
2022/12/18 09:17:57;;;;;;;14.95;12.40;;;;;;;11.59;72.08;100678.22;5054105;28;20025;-79
2022/12/18 09:20:22;;;;;;;13.95;11.77;;;;;;;11.78;72.04;100705.31;5053621;28;20647;-78
2022/12/18 09:22:47;;;;;;;14.55;12.00;;;;;;;11.81;71.92;100706.00;5053564;28;20021;-78
2022/12/18 09:25:13;;;;;;;14.05;12.57;;;;;;;11.60;72.22;100680.72;5054481;28;20021;-78
2022/12/18 09:27:39;;;;;;;16.95;14.30;;;;;;;11.22;71.97;100617.69;5053947;28;20441;-78
2022/12/18 09:30:05;;;;;;;17.38;13.23;;;;;;;11.61;71.61;100689.47;5054313;28;20100;-78
2022/12/18 09:32:30;;;;;;;15.02;12.30;;;;;;;11.23;71.73;100636.03;5053832;28;20029;-79
2022/12/18 09:34:56;;;;;;;14.23;11.07;;;;;;;11.41;71.44;100654.50;5053197;28;20021;-78
2022/12/18 09:37:21;;;;;;;13.98;11.05;;;;;;;10.89;71.01;100574.34;5053165;28;20028;-78
2022/12/18 09:39:46;;;;;;;13.60;11.95;;;;;;;11.73;71.29;100714.69;5053315;28;20025;-78
2022/12/18 09:42:21;;;;;;;13.43;10.13;;;;;;;11.72;70.45;100705.09;5053542;28;20108;-78
2022/12/18 09:44:53;;;;;;;11.57;10.38;;;;;;;11.48;70.56;100671.38;5051932;28;20029;-78
2022/12/18 09:47:27;;;;;;;14.18;11.60;;;;;;;11.76;70.91;100719.66;5053125;28;20032;-79
2022/12/18 09:49:57;;;;;;;13.05;9.88;;;;;;;11.77;70.54;100723.97;5053333;28;20013;-78
2022/12/18 09:52:29;;;;;;;12.70;11.23;;;;;;;11.76;70.89;100709.06;5051625;28;20048;-78
2022/12/18 09:55:04;;;;;;;13.83;11.73;;;;;;;11.43;70.56;100655.16;5051880;28;20044;-78
2022/12/18 09:57:33;;;;;;;14.82;12.77;;;;;;;11.67;70.37;100697.63;5053047;28;20279;-79
2022/12/18 10:00:06;;;;;;;14.13;12.55;;;;;;;11.71;70.60;100714.84;5052846;28;20052;-79
2022/12/18 10:02:32;;;;;;;16.70;13.15;;;;;;;11.61;70.53;100703.53;5051717;28;20031;-78
2022/12/18 10:05:14;;;;;;;17.38;14.93;;;;;;;11.32;70.94;100650.13;5052892;28;20025;-79
2022/12/18 10:08:13;;;;;;;18.35;15.40;;;;;;;11.71;71.11;100721.94;5052925;28;20483;-79
2022/12/18 10:11:03;;;;;;;18.42;15.55;;;;;;;11.72;71.65;100721.78;5052440;28;20421;-79
2022/12/18 10:13:47;;;;;;;19.35;15.10;;;;;;;11.24;71.74;100637.69;5052704;28;20118;-79
2022/12/18 10:16:33;;;;;;;20.48;17.33;;;;;;;11.77;71.88;100714.25;5052725;28;20075;-78
2022/12/18 10:19:30;;;;;;;19.30;16.85;;;;;;;11.40;72.27;100664.25;5052663;28;20018;-79
2022/12/18 10:22:12;;;;;;;20.17;16.73;;;;;;;11.78;72.63;100720.38;5052747;28;20086;-78
2022/12/18 10:25:04;;;;;;;18.70;16.60;;;;;;;11.29;72.93;100642.53;5052611;28;20071;-79
2022/12/18 10:27:30;;;;;;;23.80;18.73;;;;;;;11.75;73.04;100715.34;5052161;28;20021;-79
2022/12/18 10:29:57;;;;;;;23.27;19.33;;;;;;;11.37;73.76;100653.97;5052164;28;20013;-78
2022/12/18 10:32:26;;;;;;;23.48;19.10;;;;;;;11.31;73.62;100654.59;5051833;28;20032;-78
2022/12/18 10:34:56;;;;;;;22.77;19.67;;;;;;;11.40;74.01;100676.63;5051017;28;20028;-79
2022/12/18 10:37:27;;;;;;;23.10;19.50;;;;;;;10.98;74.00;100599.81;5050776;28;20120;-78
2022/12/18 10:40:14;;;;;;;20.88;17.20;;;;;;;11.34;74.18;100664.84;5052383;28;20406;-78
2022/12/18 10:42:41;;;;;;;22.98;18.98;;;;;;;11.57;74.64;100715.41;5052753;28;20378;-79
2022/12/18 10:45:15;;;;;;;24.75;18.48;;;;;;;11.29;74.62;100650.44;5052035;28;20032;-78
2022/12/18 10:47:50;;;;;;;22.95;18.67;;;;;;;11.42;75.26;100672.84;5051745;28;20029;-79
2022/12/18 10:50:30;;;;;;;20.23;17.75;;;;;;;11.70;75.02;100721.13;5050643;28;20125;-78
2022/12/18 10:53:04;;;;;;;25.05;19.02;;;;;;;11.68;75.62;100731.03;5052088;28;20070;-78
2022/12/18 10:55:37;;;;;;;22.67;17.98;;;;;;;11.69;75.62;100740.63;5052033;28;20025;-79
2022/12/18 10:58:25;;;;;;;24.05;19.92;;;;;;;11.54;75.78;100713.09;5050541;28;20425;-79
2022/12/18 11:01:13;;;;;;;21.65;18.48;;;;;;;11.69;75.71;100731.84;5051627;28;20413;-79
2022/12/18 11:03:40;;;;;;;24.17;20.75;;;;;;;11.70;76.11;100738.81;5050414;28;20017;-79
2022/12/18 11:06:10;;;;;;;28.13;22.85;;;;;;;11.69;76.04;100737.97;5050283;28;20047;-78
2022/12/18 11:08:36;;;;;;;25.83;23.02;;;;;;;11.13;75.84;100651.97;5051503;28;20039;-79
2022/12/18 11:11:02;;;;;;;30.10;23.90;;;;;;;11.72;76.48;100744.78;5051499;28;20048;-79
2022/12/18 11:13:30;;;;;;;32.08;25.58;;;;;;;11.23;76.55;100662.47;5051590;28;20142;-79
2022/12/18 11:15:56;;;;;;;31.88;24.67;;;;;;;11.50;76.62;100722.31;5051403;28;20017;-78
2022/12/18 11:18:25;;;;;;;31.48;25.95;;;;;;;11.09;76.88;100663.00;5051352;28;20025;-79
2022/12/18 11:20:53;;;;;;;30.20;23.48;;;;;;;11.70;76.69;100759.97;5051414;28;20516;-79
2022/12/18 11:23:22;;;;;;;31.40;24.55;;;;;;;11.66;76.93;100762.09;5050036;28;20036;-79
2022/12/18 11:25:54;;;;;;;31.85;25.55;;;;;;;11.65;77.48;100762.25;5051432;28;20497;-80